Time;durP1;ratioP1;P1;durP2;ratioP2;P2;SDS_P1;SDS_P2;PMS_P1;PMS_P2;Temp;Humidity;BMP_temperature;BMP_pressure;BME280_temperature;BME280_humidity;BME280_pressure;Samples;Min_cycle;Max_cycle;Signal;HPM_P1;HPM_P2
2022/03/29 00:01:37;;;;;;;;;;;7.30;99.90;;;;;;5073021;27;19931;-72
2022/03/29 00:04:03;;;;;;;;;;;7.30;99.90;;;;;;5089215;27;19939;-72
2022/03/29 00:06:29;;;;;;;;;;;7.30;99.90;;;;;;5073019;28;19934;-72
2022/03/29 00:08:55;;;;;;;;;;;7.30;99.90;;;;;;5089317;27;19974;-72
2022/03/29 00:11:21;;;;;;;;;;;7.30;99.90;;;;;;5076342;27;20502;-72
2022/03/29 00:13:47;;;;;;;;;;;7.20;99.90;;;;;;5077222;27;19924;-72
2022/03/29 00:16:12;;;;;;;;;;;7.20;99.90;;;;;;5051019;27;20518;-72
2022/03/29 00:18:38;;;;;;;;;;;7.00;99.90;;;;;;5088212;27;20211;-72
2022/03/29 00:21:04;;;;;;;;;;;6.90;99.90;;;;;;5093626;27;19932;-72
2022/03/29 00:23:29;;;;;;;;;;;7.00;99.90;;;;;;5087264;27;19942;-72
2022/03/29 00:25:55;;;;;;;;;;;6.90;99.90;;;;;;5071050;27;21113;-72
2022/03/29 00:28:20;;;;;;;;;;;7.00;99.90;;;;;;5069767;27;19928;-72
2022/03/29 00:30:46;;;;;;;;;;;6.90;99.90;;;;;;5072406;27;19927;-72
2022/03/29 00:33:11;;;;;;;;;;;6.90;99.90;;;;;;5083769;27;20807;-72
2022/03/29 00:35:38;;;;;;;;;;;6.90;99.90;;;;;;5087051;27;19935;-72
2022/03/29 00:38:04;;;;;;;;;;;6.90;99.90;;;;;;5072179;27;19967;-72
2022/03/29 00:40:30;;;;;;;;;;;6.90;99.90;;;;;;5069049;27;20022;-72
2022/03/29 00:42:56;;;;;;;;;;;6.90;99.90;;;;;;5083717;27;20471;-72
2022/03/29 00:45:21;;;;;;;;;;;6.90;99.90;;;;;;5068635;27;20626;-71
2022/03/29 00:47:47;;;;;;;;;;;7.00;99.90;;;;;;5069580;27;19927;-72
2022/03/29 00:50:13;;;;;;;;;;;7.00;99.90;;;;;;5080197;27;19931;-71
2022/03/29 00:52:39;;;;;;;;;;;7.00;99.90;;;;;;5067092;28;20590;-72
2022/03/29 00:55:05;;;;;;;;;;;7.00;99.90;;;;;;5049684;27;19928;-72
2022/03/29 00:57:32;;;;;;;;;;;6.90;99.90;;;;;;5066270;27;20006;-72
2022/03/29 00:59:58;;;;;;;;;;;7.00;99.90;;;;;;5091745;27;20010;-72
2022/03/29 01:02:24;;;;;;;;;;;6.90;99.90;;;;;;5067150;28;19962;-72
2022/03/29 01:04:50;;;;;;;;;;;7.00;99.90;;;;;;5094885;27;20019;-72
2022/03/29 01:07:15;;;;;;;;;;;6.90;99.90;;;;;;5070203;27;20027;-72
2022/03/29 01:09:41;;;;;;;;;;;6.80;99.90;;;;;;5069246;27;20710;-72
2022/03/29 01:12:08;;;;;;;;;;;6.80;99.90;;;;;;5065558;27;20026;-72
2022/03/29 01:14:34;;;;;;;;;;;6.90;99.90;;;;;;5061878;27;19934;-72
2022/03/29 01:19:45;;;;;;;;;;;7.00;99.90;;;;;;5069977;28;20444;-72
2022/03/29 01:22:11;;;;;;;;;;;7.00;99.90;;;;;;5089786;27;19927;-72
2022/03/29 01:24:37;;;;;;;;;;;7.00;99.90;;;;;;5066152;27;19935;-71
2022/03/29 01:27:06;;;;;;;;;;;7.00;99.90;;;;;;5086270;27;19927;-72
2022/03/29 01:29:32;;;;;;;;;;;7.00;99.90;;;;;;5068361;27;20191;-72
2022/03/29 01:31:58;;;;;;;;;;;7.00;99.90;;;;;;5088100;27;19954;-71
2022/03/29 01:34:25;;;;;;;;;;;7.00;99.90;;;;;;5086851;27;20514;-72
2022/03/29 01:36:50;;;;;;;;;;;6.80;99.90;;;;;;5066671;28;20905;-72
2022/03/29 01:39:16;;;;;;;;;;;6.90;99.90;;;;;;5091956;27;19927;-71
2022/03/29 01:41:42;;;;;;;;;;;6.80;99.90;;;;;;5043639;28;19929;-72
2022/03/29 01:44:09;;;;;;;;;;;6.80;99.90;;;;;;5014675;28;20027;-72
2022/03/29 01:46:34;;;;;;;;;;;6.90;99.90;;;;;;5044660;28;19936;-72
2022/03/29 01:49:00;;;;;;;;;;;6.80;99.90;;;;;;5046712;28;19928;-71
2022/03/29 01:51:26;;;;;;;;;;;6.80;99.90;;;;;;5024215;28;19935;-71
2022/03/29 01:53:53;;;;;;;;;;;6.80;99.90;;;;;;5012633;28;19929;-71
2022/03/29 01:56:18;;;;;;;;;;;6.70;99.90;;;;;;5030193;28;19939;-72
2022/03/29 01:58:44;;;;;;;;;;;6.80;99.90;;;;;;5011963;28;20633;-71
2022/03/29 02:01:10;;;;;;;;;;;6.90;99.90;;;;;;5047770;28;19942;-71
2022/03/29 02:03:35;;;;;;;;;;;6.90;99.90;;;;;;5032116;28;20389;-71
2022/03/29 02:06:01;;;;;;;;;;;6.90;99.90;;;;;;5030289;28;19929;-72
2022/03/29 02:08:26;;;;;;;;;;;6.90;99.90;;;;;;5025597;28;20023;-72
2022/03/29 02:10:52;;;;;;;;;;;6.80;99.90;;;;;;5030117;28;19932;-71
2022/03/29 02:13:18;;;;;;;;;;;6.80;99.90;;;;;;5027689;28;19932;-71
2022/03/29 02:15:43;;;;;;;;;;;6.80;99.90;;;;;;5029823;28;19993;-72
2022/03/29 02:18:09;;;;;;;;;;;6.90;99.90;;;;;;5027432;28;19929;-72
2022/03/29 02:20:34;;;;;;;;;;;6.90;99.90;;;;;;5047875;28;19960;-72
2022/03/29 02:23:01;;;;;;;;;;;6.80;99.90;;;;;;5024366;28;20598;-72
2022/03/29 02:25:27;;;;;;;;;;;6.80;99.90;;;;;;5026778;28;19987;-72
2022/03/29 02:27:53;;;;;;;;;;;6.80;99.90;;;;;;5024097;28;20826;-72
2022/03/29 02:30:19;;;;;;;;;;;6.80;99.90;;;;;;5026184;28;19932;-72
2022/03/29 02:32:45;;;;;;;;;;;6.90;99.90;;;;;;5044103;28;19934;-72
2022/03/29 02:35:10;;;;;;;;;;;7.00;99.90;;;;;;5041919;28;19928;-72
2022/03/29 02:37:37;;;;;;;;;;;7.00;99.90;;;;;;5060770;28;20459;-72
2022/03/29 02:40:03;;;;;;;;;;;6.90;99.90;;;;;;5031021;28;19978;-72
2022/03/29 02:42:29;;;;;;;;;;;6.90;99.90;;;;;;5080818;27;20517;-72
2022/03/29 02:44:54;;;;;;;;;;;6.80;99.90;;;;;;5090850;27;20451;-72
2022/03/29 02:47:20;;;;;;;;;;;7.00;99.90;;;;;;5082048;27;19945;-72
2022/03/29 02:49:46;;;;;;;;;;;6.70;99.90;;;;;;5066290;27;20093;-72
2022/03/29 02:52:12;;;;;;;;;;;6.70;99.90;;;;;;5084783;27;20460;-72
2022/03/29 02:54:38;;;;;;;;;;;6.70;99.90;;;;;;5069263;27;19935;-72
2022/03/29 02:57:04;;;;;;;;;;;6.70;99.90;;;;;;5070227;27;19934;-72
2022/03/29 02:59:29;;;;;;;;;;;6.50;99.90;;;;;;5068484;27;20851;-72
2022/03/29 03:01:56;;;;;;;;;;;6.60;99.90;;;;;;5088649;27;19982;-72
2022/03/29 03:04:21;;;;;;;;;;;6.70;99.90;;;;;;5070705;27;19927;-72
2022/03/29 03:06:47;;;;;;;;;;;6.70;99.90;;;;;;5068155;27;20339;-72
2022/03/29 03:09:12;;;;;;;;;;;6.70;99.90;;;;;;5088246;27;19928;-72
2022/03/29 03:11:38;;;;;;;;;;;6.70;99.90;;;;;;5089845;27;20469;-72
2022/03/29 03:14:04;;;;;;;;;;;6.80;99.90;;;;;;5090223;27;19938;-72
2022/03/29 03:16:29;;;;;;;;;;;6.80;99.90;;;;;;5067366;27;20865;-72
2022/03/29 03:18:55;;;;;;;;;;;6.80;99.90;;;;;;5088098;27;19928;-72
2022/03/29 03:21:21;;;;;;;;;;;6.80;99.90;;;;;;5067128;27;19932;-72
2022/03/29 03:23:46;;;;;;;;;;;6.90;99.90;;;;;;5084687;27;20010;-72
2022/03/29 03:26:12;;;;;;;;;;;6.80;99.90;;;;;;5085686;27;20033;-72
2022/03/29 03:28:38;;;;;;;;;;;6.80;99.90;;;;;;5073032;27;19932;-71
2022/03/29 03:31:03;;;;;;;;;;;6.80;99.90;;;;;;5067233;27;19932;-72
2022/03/29 03:33:29;;;;;;;;;;;6.90;99.90;;;;;;5067261;27;19927;-72
2022/03/29 03:35:54;;;;;;;;;;;6.80;99.90;;;;;;5065968;27;19938;-72
2022/03/29 03:38:20;;;;;;;;;;;6.80;99.90;;;;;;5062074;27;20077;-71
2022/03/29 03:40:46;;;;;;;;;;;6.60;99.90;;;;;;5070318;27;19935;-72
2022/03/29 03:43:11;;;;;;;;;;;6.70;99.90;;;;;;5054800;28;20395;-72
2022/03/29 03:45:37;;;;;;;;;;;6.80;99.90;;;;;;5071309;28;19928;-72
2022/03/29 03:48:03;;;;;;;;;;;6.80;99.90;;;;;;5033084;28;19939;-72
2022/03/29 03:50:29;;;;;;;;;;;6.80;99.90;;;;;;5069317;28;19932;-71
2022/03/29 03:52:54;;;;;;;;;;;6.80;99.90;;;;;;5071410;28;19950;-72
2022/03/29 03:55:21;;;;;;;;;;;6.80;99.90;;;;;;5048521;28;19928;-72
2022/03/29 03:57:47;;;;;;;;;;;6.80;99.90;;;;;;5073673;28;19923;-72
2022/03/29 04:00:12;;;;;;;;;;;6.80;99.90;;;;;;5069164;28;19950;-72
2022/03/29 04:02:39;;;;;;;;;;;6.80;99.90;;;;;;5069409;28;20003;-72
2022/03/29 04:05:08;;;;;;;;;;;6.90;99.90;;;;;;5074614;28;19939;-71
2022/03/29 04:07:34;;;;;;;;;;;6.80;99.90;;;;;;5070847;28;19927;-72
2022/03/29 04:09:59;;;;;;;;;;;6.80;99.90;;;;;;5055994;28;19963;-72
2022/03/29 04:12:25;;;;;;;;;;;6.80;99.90;;;;;;5067741;28;19928;-72
2022/03/29 04:14:50;;;;;;;;;;;6.70;99.90;;;;;;5048162;28;19932;-72
2022/03/29 04:17:16;;;;;;;;;;;6.80;99.90;;;;;;5047942;28;19935;-72
2022/03/29 04:19:42;;;;;;;;;;;6.80;99.90;;;;;;5052854;28;20021;-72
2022/03/29 04:22:07;;;;;;;;;;;6.70;99.90;;;;;;5053040;28;19928;-72
2022/03/29 04:24:33;;;;;;;;;;;6.80;99.90;;;;;;5072120;28;19928;-72
2022/03/29 04:26:59;;;;;;;;;;;6.80;99.90;;;;;;5047337;28;19934;-72
2022/03/29 04:29:24;;;;;;;;;;;6.90;99.90;;;;;;5049392;28;19927;-72
2022/03/29 04:31:52;;;;;;;;;;;6.80;99.90;;;;;;5048391;28;20287;-71
2022/03/29 04:34:17;;;;;;;;;;;6.80;99.90;;;;;;5049784;28;19934;-71
2022/03/29 04:36:43;;;;;;;;;;;6.80;99.90;;;;;;5038444;28;19932;-72
2022/03/29 04:39:09;;;;;;;;;;;6.80;99.90;;;;;;5067438;28;20400;-72
2022/03/29 04:41:34;;;;;;;;;;;6.80;99.90;;;;;;5050363;28;19935;-72
2022/03/29 04:44:00;;;;;;;;;;;6.80;99.90;;;;;;5048130;28;19967;-72
2022/03/29 04:46:27;;;;;;;;;;;6.80;99.90;;;;;;5061122;28;19928;-72
2022/03/29 04:48:52;;;;;;;;;;;6.80;99.90;;;;;;5038912;28;19932;-72
2022/03/29 04:51:18;;;;;;;;;;;6.80;99.90;;;;;;5050167;28;19932;-72
2022/03/29 04:53:44;;;;;;;;;;;6.80;99.90;;;;;;5051837;28;19931;-72
2022/03/29 04:56:09;;;;;;;;;;;6.80;99.90;;;;;;5031139;28;20603;-72
2022/03/29 04:58:35;;;;;;;;;;;6.80;99.90;;;;;;5026857;28;20386;-72
2022/03/29 05:01:01;;;;;;;;;;;6.80;99.90;;;;;;5024563;28;20026;-72
2022/03/29 05:03:26;;;;;;;;;;;6.80;99.90;;;;;;5033135;28;19928;-72
2022/03/29 05:05:52;;;;;;;;;;;6.80;99.90;;;;;;5048195;28;20002;-72
2022/03/29 05:08:17;;;;;;;;;;;6.80;99.90;;;;;;5028136;28;20027;-72
2022/03/29 05:10:43;;;;;;;;;;;6.80;99.90;;;;;;5033409;28;20605;-72
2022/03/29 05:13:09;;;;;;;;;;;6.80;99.90;;;;;;5051562;28;20361;-72
2022/03/29 05:15:35;;;;;;;;;;;6.80;99.90;;;;;;5032914;28;19928;-72
2022/03/29 05:18:01;;;;;;;;;;;6.90;99.90;;;;;;5051897;28;19931;-72
2022/03/29 05:20:27;;;;;;;;;;;6.80;99.90;;;;;;5048220;28;19943;-72
2022/03/29 05:22:55;;;;;;;;;;;6.90;99.90;;;;;;5031224;28;20038;-72
2022/03/29 05:25:24;;;;;;;;;;;6.90;99.90;;;;;;5050648;28;20662;-72
2022/03/29 05:27:51;;;;;;;;;;;7.00;99.90;;;;;;5034936;28;20312;-72
2022/03/29 05:30:16;;;;;;;;;;;6.90;99.90;;;;;;5027960;28;19928;-72
2022/03/29 05:32:42;;;;;;;;;;;6.90;99.90;;;;;;5031960;28;19932;-71
2022/03/29 05:35:09;;;;;;;;;;;6.90;99.90;;;;;;5046837;28;20010;-72
2022/03/29 05:37:35;;;;;;;;;;;6.90;99.90;;;;;;5063080;28;19977;-71
2022/03/29 05:40:01;;;;;;;;;;;7.00;99.90;;;;;;5063700;28;20005;-72
2022/03/29 05:42:29;;;;;;;;;;;7.00;99.90;;;;;;5052019;27;20428;-72
2022/03/29 05:44:54;;;;;;;;;;;6.90;99.90;;;;;;5056102;28;19935;-72
2022/03/29 05:50:04;;;;;;;;;;;6.90;99.90;;;;;;5091107;28;19932;-72
2022/03/29 05:52:30;;;;;;;;;;;7.00;99.90;;;;;;5069836;28;19927;-72
2022/03/29 05:54:56;;;;;;;;;;;7.00;99.90;;;;;;5096532;27;20442;-71
2022/03/29 05:57:22;;;;;;;;;;;7.00;99.90;;;;;;5073045;28;19927;-71
2022/03/29 05:59:48;;;;;;;;;;;7.00;99.90;;;;;;5072127;28;19931;-72
2022/03/29 06:02:13;;;;;;;;;;;7.00;99.90;;;;;;5070461;28;19951;-72
2022/03/29 06:04:42;;;;;;;;;;;7.10;99.90;;;;;;5067537;28;19923;-71
2022/03/29 06:07:07;;;;;;;;;;;7.10;99.90;;;;;;5071857;28;19934;-72
2022/03/29 06:09:33;;;;;;;;;;;7.10;99.90;;;;;;5093485;28;19927;-72
2022/03/29 06:11:59;;;;;;;;;;;7.10;99.90;;;;;;5060623;28;20682;-72
2022/03/29 06:14:25;;;;;;;;;;;7.20;99.90;;;;;;5062826;28;19935;-71
2022/03/29 06:16:51;;;;;;;;;;;7.10;99.90;;;;;;5068490;28;19935;-72
2022/03/29 06:19:16;;;;;;;;;;;7.10;99.90;;;;;;5068217;28;19928;-72
2022/03/29 06:21:42;;;;;;;;;;;7.20;99.90;;;;;;5068964;28;19928;-71
2022/03/29 06:24:08;;;;;;;;;;;7.30;99.90;;;;;;5092867;28;19928;-72
2022/03/29 06:26:37;;;;;;;;;;;7.40;99.90;;;;;;5093841;28;19997;-72
2022/03/29 06:29:03;;;;;;;;;;;7.40;99.90;;;;;;5075094;28;20643;-72
2022/03/29 06:31:28;;;;;;;;;;;7.40;99.90;;;;;;5069363;28;19932;-72
2022/03/29 06:33:54;;;;;;;;;;;7.50;99.90;;;;;;5055881;28;19989;-72
2022/03/29 06:36:20;;;;;;;;;;;7.60;99.90;;;;;;5088454;28;19931;-72
2022/03/29 06:38:46;;;;;;;;;;;7.60;99.90;;;;;;5066043;28;19992;-71
2022/03/29 06:41:13;;;;;;;;;;;7.70;99.90;;;;;;5068433;28;20119;-72
2022/03/29 06:43:39;;;;;;;;;;;7.70;99.90;;;;;;5076337;27;20281;-72
2022/03/29 06:46:07;;;;;;;;;;;7.50;99.90;;;;;;5075335;27;19938;-72
2022/03/29 06:48:33;;;;;;;;;;;7.50;99.90;;;;;;5072658;28;19958;-71
2022/03/29 06:50:58;;;;;;;;;;;7.60;99.90;;;;;;5089527;27;20566;-72
2022/03/29 06:53:24;;;;;;;;;;;7.70;99.90;;;;;;5074158;27;19935;-72
2022/03/29 06:55:51;;;;;;;;;;;7.70;99.90;;;;;;5090009;27;20002;-71
2022/03/29 06:58:17;;;;;;;;;;;7.50;99.90;;;;;;5071764;27;19927;-72
2022/03/29 07:00:43;;;;;;;;;;;7.40;99.90;;;;;;5068140;27;19935;-71
2022/03/29 07:03:09;;;;;;;;;;;7.60;99.90;;;;;;5070311;28;19931;-72
2022/03/29 07:05:39;;;;;;;;;;;7.60;99.90;;;;;;5070568;27;19927;-72
2022/03/29 07:08:06;;;;;;;;;;;7.60;99.90;;;;;;5068260;27;20636;-72
2022/03/29 07:13:16;;;;;;;;;;;7.90;99.90;;;;;;5064873;27;19927;-72
2022/03/29 07:15:42;;;;;;;;;;;7.80;99.90;;;;;;5101365;27;20396;-72
2022/03/29 07:18:08;;;;;;;;;;;8.00;99.90;;;;;;5080301;27;19938;-72
2022/03/29 07:20:34;;;;;;;;;;;8.10;99.90;;;;;;5093778;27;19996;-72
2022/03/29 07:22:59;;;;;;;;;;;8.00;99.90;;;;;;5061567;27;19963;-72
2022/03/29 07:25:26;;;;;;;;;;;7.90;99.90;;;;;;5073598;27;19952;-72
2022/03/29 07:27:53;;;;;;;;;;;7.90;99.90;;;;;;5096147;27;20474;-72
2022/03/29 07:30:20;;;;;;;;;;;8.00;99.90;;;;;;5066751;27;20422;-71
2022/03/29 07:32:50;;;;;;;;;;;8.10;99.90;;;;;;5074305;27;19927;-71
2022/03/29 07:35:17;;;;;;;;;;;8.00;99.90;;;;;;5087869;27;19942;-71
2022/03/29 07:37:43;;;;;;;;;;;8.10;99.90;;;;;;5070090;28;19931;-72
2022/03/29 07:40:09;;;;;;;;;;;8.00;99.90;;;;;;5085785;27;20427;-72
2022/03/29 07:42:38;;;;;;;;;;;8.30;99.90;;;;;;5089013;27;20385;-72
2022/03/29 07:45:04;;;;;;;;;;;8.20;99.90;;;;;;5045329;27;19934;-72
2022/03/29 07:47:30;;;;;;;;;;;8.00;99.90;;;;;;5071995;27;19971;-72
2022/03/29 07:49:56;;;;;;;;;;;8.20;99.90;;;;;;5079087;27;20852;-72
2022/03/29 07:52:21;;;;;;;;;;;8.20;99.90;;;;;;5081227;27;20018;-72
2022/03/29 07:54:48;;;;;;;;;;;8.10;99.90;;;;;;5077872;27;19927;-71
2022/03/29 07:57:14;;;;;;;;;;;8.50;99.90;;;;;;5071325;28;19927;-71
2022/03/29 07:59:40;;;;;;;;;;;8.60;99.90;;;;;;5068316;28;19927;-72
2022/03/29 08:02:05;;;;;;;;;;;8.60;99.90;;;;;;5094367;27;19935;-72
2022/03/29 08:04:32;;;;;;;;;;;8.40;99.90;;;;;;5064752;28;19939;-71
2022/03/29 08:06:58;;;;;;;;;;;8.70;99.90;;;;;;5051241;27;19939;-72
2022/03/29 08:09:25;;;;;;;;;;;8.90;99.90;;;;;;5055675;28;19940;-71
2022/03/29 08:11:50;;;;;;;;;;;8.90;99.90;;;;;;5068709;28;20554;-72
2022/03/29 08:14:18;;;;;;;;;;;9.10;99.90;;;;;;5093390;27;19931;-72
2022/03/29 08:16:43;;;;;;;;;;;8.90;99.90;;;;;;5093071;27;19931;-72
2022/03/29 08:19:09;;;;;;;;;;;8.90;99.90;;;;;;5069050;27;19934;-72
2022/03/29 08:21:50;;;;;;;;;;;8.90;99.90;;;;;;5095433;27;19927;-72
2022/03/29 08:24:21;;;;;;;;;;;8.90;99.90;;;;;;5092062;27;20150;-71
2022/03/29 08:26:48;;;;;;;;;;;8.90;99.90;;;;;;5069586;27;20501;-71
2022/03/29 08:29:15;;;;;;;;;;;9.30;99.90;;;;;;5051441;28;19927;-70
2022/03/29 08:31:41;;;;;;;;;;;9.40;99.90;;;;;;5051123;27;19928;-72
2022/03/29 08:34:07;;;;;;;;;;;9.00;99.90;;;;;;5091037;27;19974;-72
2022/03/29 08:36:33;;;;;;;;;;;9.00;99.90;;;;;;5075652;27;19923;-72
2022/03/29 08:38:59;;;;;;;;;;;9.00;99.90;;;;;;5090062;27;19983;-72
2022/03/29 08:41:26;;;;;;;;;;;9.30;99.90;;;;;;5051695;27;20401;-72
2022/03/29 08:43:52;;;;;;;;;;;9.90;99.90;;;;;;5089491;27;19928;-72
2022/03/29 08:46:18;;;;;;;;;;;9.80;99.90;;;;;;5038219;27;19932;-72
2022/03/29 08:48:46;;;;;;;;;;;9.70;99.90;;;;;;5071955;27;19932;-72
2022/03/29 08:51:12;;;;;;;;;;;9.90;99.90;;;;;;5074650;27;20423;-71
2022/03/29 08:53:38;;;;;;;;;;;9.70;99.90;;;;;;5058524;27;20021;-72
2022/03/29 08:56:04;;;;;;;;;;;9.80;99.90;;;;;;5091604;27;19932;-72
2022/03/29 08:58:29;;;;;;;;;;;10.00;99.90;;;;;;5062955;27;19923;-72
2022/03/29 09:00:55;;;;;;;;;;;9.90;99.90;;;;;;5094589;27;19945;-72
2022/03/29 09:03:21;;;;;;;;;;;10.10;99.90;;;;;;5069258;27;19934;-72
2022/03/29 09:05:48;;;;;;;;;;;10.50;99.90;;;;;;5071738;28;20114;-72
2022/03/29 09:08:15;;;;;;;;;;;10.80;99.90;;;;;;5093575;27;19928;-72
2022/03/29 09:10:48;;;;;;;;;;;10.70;99.90;;;;;;5077064;27;20400;-71
2022/03/29 09:13:17;;;;;;;;;;;11.10;99.90;;;;;;5034519;27;20423;-72
2022/03/29 09:15:42;;;;;;;;;;;11.10;99.90;;;;;;5095614;27;20103;-71
2022/03/29 09:18:08;;;;;;;;;;;11.30;99.90;;;;;;5100166;27;20460;-72
2022/03/29 09:20:34;;;;;;;;;;;11.50;99.90;;;;;;5071097;28;19932;-72
2022/03/29 09:23:00;;;;;;;;;;;11.10;99.90;;;;;;5067894;27;19928;-72
2022/03/29 09:25:38;;;;;;;;;;;12.20;99.90;;;;;;5053421;27;19927;-72
2022/03/29 09:28:04;;;;;;;;;;;11.90;99.90;;;;;;5101803;27;19938;-72
2022/03/29 09:30:38;;;;;;;;;;;11.60;99.90;;;;;;5062071;27;19927;-72
2022/03/29 09:33:08;;;;;;;;;;;11.90;99.90;;;;;;5069528;28;19931;-72
2022/03/29 09:35:36;;;;;;;;;;;12.00;99.90;;;;;;5097205;27;20030;-72
2022/03/29 09:38:18;;;;;;;;;;;12.10;99.90;;;;;;5068605;27;20064;-72
2022/03/29 09:40:44;;;;;;;;;;;12.20;99.90;;;;;;5097694;27;19988;-72
2022/03/29 09:43:10;;;;;;;;;;;11.90;99.90;;;;;;5070955;28;19927;-72
2022/03/29 09:45:43;;;;;;;;;;;12.10;99.90;;;;;;5067986;28;19979;-72
2022/03/29 09:48:22;;;;;;;;;;;11.20;99.90;;;;;;5098774;28;19931;-72
2022/03/29 09:50:48;;;;;;;;;;;11.40;99.90;;;;;;5070699;28;19978;-72
2022/03/29 09:53:32;;;;;;;;;;;11.50;99.90;;;;;;5067083;28;20586;-72
2022/03/29 09:55:59;;;;;;;;;;;11.70;99.90;;;;;;5078699;28;20564;-72
2022/03/29 09:58:24;;;;;;;;;;;11.80;99.90;;;;;;5065181;28;20050;-72
2022/03/29 10:00:50;;;;;;;;;;;11.10;99.90;;;;;;5066507;28;19927;-72
2022/03/29 10:03:17;;;;;;;;;;;11.00;99.90;;;;;;5094010;28;20000;-72
2022/03/29 10:05:44;;;;;;;;;;;11.90;99.90;;;;;;5077771;28;20429;-72
2022/03/29 10:10:57;;;;;;;;;;;12.50;99.90;;;;;;5067548;28;19931;-72
2022/03/29 10:13:23;;;;;;;;;;;12.90;99.90;;;;;;5065575;28;19928;-72
2022/03/29 10:15:50;;;;;;;;;;;12.30;99.90;;;;;;5086987;28;19932;-72
2022/03/29 10:18:16;;;;;;;;;;;12.90;99.90;;;;;;5087628;27;19928;-72
2022/03/29 10:20:42;;;;;;;;;;;12.80;99.90;;;;;;5065507;27;20332;-72
2022/03/29 10:23:10;;;;;;;;;;;12.80;99.90;;;;;;5068134;28;19924;-72
2022/03/29 10:25:38;;;;;;;;;;;12.00;99.90;;;;;;5090590;27;19950;-72
2022/03/29 10:28:05;;;;;;;;;;;12.00;99.90;;;;;;5066221;27;19927;-72
2022/03/29 10:30:31;;;;;;;;;;;11.80;99.90;;;;;;5069983;28;19935;-72
2022/03/29 10:33:16;;;;;;;;;;;11.90;99.90;;;;;;5070431;27;19939;-72
2022/03/29 10:36:09;;;;;;;;;;;12.10;99.90;;;;;;5094328;27;19927;-72
2022/03/29 10:41:32;;;;;;;;;;;11.90;99.90;;;;;;5091520;27;20000;-72
2022/03/29 10:44:04;;;;;;;;;;;12.00;99.90;;;;;;5100866;27;19927;-72
2022/03/29 10:46:38;;;;;;;;;;;12.70;99.90;;;;;;5100242;27;19935;-72
2022/03/29 10:49:24;;;;;;;;;;;13.20;99.90;;;;;;5073492;28;20371;-72
2022/03/29 10:52:16;;;;;;;;;;;12.60;99.90;;;;;;5101955;27;20808;-72
2022/03/29 10:54:41;;;;;;;;;;;12.60;99.90;;;;;;5101799;27;19923;-72
2022/03/29 10:57:07;;;;;;;;;;;13.90;99.90;;;;;;5083130;27;20032;-72
2022/03/29 10:59:36;;;;;;;;;;;14.10;99.90;;;;;;5060117;27;19933;-72
2022/03/29 11:02:20;;;;;;;;;;;13.70;99.90;;;;;;5077301;27;20014;-72
2022/03/29 11:05:08;;;;;;;;;;;13.60;99.90;;;;;;5080783;27;20998;-72
2022/03/29 11:07:34;;;;;;;;;;;13.60;99.90;;;;;;5077739;27;19968;-72
2022/03/29 11:10:16;;;;;;;;;;;13.70;99.90;;;;;;5091529;27;19932;-72
2022/03/29 11:12:51;;;;;;;;;;;13.50;99.90;;;;;;5067590;27;19954;-72
2022/03/29 11:15:35;;;;;;;;;;;13.40;99.90;;;;;;5097781;27;19927;-72
2022/03/29 11:18:04;;;;;;;;;;;12.90;99.90;;;;;;5096793;27;20020;-72
2022/03/29 11:20:39;;;;;;;;;;;13.10;99.90;;;;;;5073519;27;19951;-72
2022/03/29 11:23:06;;;;;;;;;;;13.30;99.30;;;;;;5054346;28;19936;-72
2022/03/29 11:25:42;;;;;;;;;;;13.70;99.90;;;;;;5073336;27;19927;-72
2022/03/29 11:28:12;;;;;;;;;;;13.70;97.20;;;;;;5079101;27;21108;-72
2022/03/29 11:30:38;;;;;;;;;;;14.20;95.80;;;;;;5062967;27;19928;-72
2022/03/29 11:33:04;;;;;;;;;;;14.10;99.90;;;;;;5073012;28;19932;-72
2022/03/29 11:35:31;;;;;;;;;;;15.00;99.30;;;;;;5075746;27;19924;-72
2022/03/29 11:38:05;;;;;;;;;;;14.80;91.90;;;;;;5094704;27;19927;-72
2022/03/29 11:40:33;;;;;;;;;;;14.20;97.50;;;;;;5065798;27;20000;-72
2022/03/29 11:43:00;;;;;;;;;;;14.60;93.60;;;;;;5070331;27;20050;-73
2022/03/29 11:45:28;;;;;;;;;;;13.50;96.40;;;;;;5076374;27;19927;-72
2022/03/29 11:47:57;;;;;;;;;;;13.00;95.70;;;;;;5060950;27;19927;-72
2022/03/29 11:50:35;;;;;;;;;;;13.80;99.90;;;;;;5065330;27;20022;-72
2022/03/29 11:53:02;;;;;;;;;;;13.70;88.40;;;;;;5094522;27;19931;-72
2022/03/29 11:55:28;;;;;;;;;;;14.10;87.10;;;;;;5076640;27;19932;-73
2022/03/29 11:57:53;;;;;;;;;;;14.50;86.20;;;;;;5061178;27;19927;-73
2022/03/29 12:00:20;;;;;;;;;;;14.20;81.30;;;;;;5071156;27;19939;-72
2022/03/29 12:02:45;;;;;;;;;;;14.30;89.10;;;;;;5077853;27;19927;-73
2022/03/29 12:05:19;;;;;;;;;;;14.50;93.50;;;;;;5060886;27;19992;-72
2022/03/29 12:07:45;;;;;;;;;;;14.20;90.00;;;;;;5091913;27;20406;-72
2022/03/29 12:10:13;;;;;;;;;;;14.40;89.60;;;;;;5068952;27;20003;-72
2022/03/29 12:12:39;;;;;;;;;;;14.70;84.10;;;;;;5073762;27;19985;-72
2022/03/29 12:15:06;;;;;;;;;;;14.90;85.20;;;;;;5077791;27;20031;-73
2022/03/29 12:17:33;;;;;;;;;;;14.60;81.90;;;;;;5079260;27;19934;-73
2022/03/29 12:19:59;;;;;;;;;;;13.90;82.60;;;;;;5074535;27;20803;-73
2022/03/29 12:22:26;;;;;;;;;;;13.80;94.10;;;;;;5069478;27;19927;-72
2022/03/29 12:24:55;;;;;;;;;;;14.30;91.40;;;;;;5069062;27;20015;-72
2022/03/29 12:27:21;;;;;;;;;;;15.00;93.00;;;;;;5074979;27;19927;-72
2022/03/29 12:29:53;;;;;;;;;;;15.40;81.70;;;;;;5091200;27;20437;-73
2022/03/29 12:32:20;;;;;;;;;;;15.30;82.60;;;;;;5071150;27;19931;-72
2022/03/29 12:34:56;;;;;;;;;;;14.90;81.60;;;;;;5068991;27;19962;-73
2022/03/29 12:37:23;;;;;;;;;;;14.40;82.20;;;;;;5055345;27;19927;-73
2022/03/29 12:39:54;;;;;;;;;;;14.40;94.50;;;;;;5092632;27;19984;-72
2022/03/29 12:42:20;;;;;;;;;;;15.10;80.80;;;;;;5066098;27;19927;-73
2022/03/29 12:44:54;;;;;;;;;;;15.80;87.10;;;;;;5066307;27;19934;-73
2022/03/29 12:47:20;;;;;;;;;;;15.70;70.00;;;;;;5059875;28;19976;-73
2022/03/29 12:49:47;;;;;;;;;;;15.00;74.50;;;;;;5062067;27;19928;-73
2022/03/29 12:52:13;;;;;;;;;;;15.50;73.20;;;;;;5094278;27;19927;-73
2022/03/29 12:54:43;;;;;;;;;;;14.50;68.70;;;;;;5067634;27;20826;-73
2022/03/29 12:57:10;;;;;;;;;;;14.40;71.80;;;;;;5075092;27;19932;-72
2022/03/29 12:59:37;;;;;;;;;;;14.60;74.10;;;;;;5065964;27;19927;-72
2022/03/29 13:02:14;;;;;;;;;;;14.60;76.90;;;;;;5054137;27;19938;-73
2022/03/29 13:04:40;;;;;;;;;;;14.60;75.50;;;;;;5068264;28;19924;-72
2022/03/29 13:07:07;;;;;;;;;;;15.40;76.50;;;;;;5073058;28;19927;-72
2022/03/29 13:09:34;;;;;;;;;;;16.10;85.70;;;;;;5087529;27;19966;-73
2022/03/29 13:12:09;;;;;;;;;;;16.20;77.00;;;;;;5093170;27;20632;-73
2022/03/29 13:14:36;;;;;;;;;;;14.60;78.90;;;;;;5071711;27;19958;-72
2022/03/29 13:17:01;;;;;;;;;;;14.00;83.50;;;;;;5071088;27;20606;-73
2022/03/29 13:19:28;;;;;;;;;;;14.00;74.10;;;;;;5073446;27;19928;-73
2022/03/29 13:21:58;;;;;;;;;;;14.20;77.50;;;;;;5070629;27;19928;-73
2022/03/29 13:24:33;;;;;;;;;;;14.20;81.70;;;;;;5053192;28;19939;-73
2022/03/29 13:27:00;;;;;;;;;;;14.30;78.70;;;;;;5050551;27;19988;-73
2022/03/29 13:29:27;;;;;;;;;;;13.60;85.40;;;;;;5066261;28;19928;-73
2022/03/29 13:31:53;;;;;;;;;;;14.10;87.10;;;;;;5065589;27;20037;-73
2022/03/29 13:34:19;;;;;;;;;;;14.00;77.40;;;;;;5089361;27;19931;-73
2022/03/29 13:36:45;;;;;;;;;;;14.20;73.80;;;;;;5074678;27;20038;-73
2022/03/29 13:39:12;;;;;;;;;;;15.20;82.50;;;;;;5074178;27;19927;-73
2022/03/29 13:41:38;;;;;;;;;;;15.40;77.40;;;;;;5095668;27;19927;-73
2022/03/29 13:44:03;;;;;;;;;;;15.60;72.60;;;;;;5073746;28;19962;-73
2022/03/29 13:46:29;;;;;;;;;;;15.50;74.30;;;;;;5065875;28;20452;-73
2022/03/29 13:48:55;;;;;;;;;;;15.20;74.90;;;;;;5061442;28;19927;-73
2022/03/29 13:51:21;;;;;;;;;;;15.20;72.20;;;;;;5084713;28;19938;-73
2022/03/29 13:53:47;;;;;;;;;;;14.60;74.10;;;;;;5070681;28;19949;-72
2022/03/29 13:56:13;;;;;;;;;;;14.10;86.70;;;;;;5070439;28;19927;-73
2022/03/29 13:58:39;;;;;;;;;;;14.10;79.10;;;;;;5064768;28;19928;-72
2022/03/29 14:01:05;;;;;;;;;;;14.20;80.60;;;;;;5084956;28;19928;-71
2022/03/29 14:03:31;;;;;;;;;;;14.30;74.90;;;;;;5071671;28;19928;-70
2022/03/29 14:06:01;;;;;;;;;;;14.00;80.50;;;;;;5078169;28;19934;-72
2022/03/29 14:08:27;;;;;;;;;;;13.70;80.40;;;;;;5095780;28;20002;-71
2022/03/29 14:10:53;;;;;;;;;;;13.80;89.70;;;;;;5056536;28;20014;-71
2022/03/29 14:13:19;;;;;;;;;;;13.60;85.70;;;;;;5087008;28;19984;-73
2022/03/29 14:15:47;;;;;;;;;;;13.80;80.90;;;;;;5069426;28;19927;-73
2022/03/29 14:18:16;;;;;;;;;;;14.00;90.80;;;;;;5065289;28;19932;-72
2022/03/29 14:20:42;;;;;;;;;;;13.80;81.90;;;;;;5071409;28;19927;-73
2022/03/29 14:23:09;;;;;;;;;;;13.50;91.70;;;;;;5073003;28;20767;-72
2022/03/29 14:25:37;;;;;;;;;;;13.70;80.10;;;;;;5063004;28;19934;-72
2022/03/29 14:28:06;;;;;;;;;;;13.90;83.30;;;;;;5050446;28;20226;-72
2022/03/29 14:30:32;;;;;;;;;;;14.30;80.20;;;;;;5065285;28;20357;-73
2022/03/29 14:32:58;;;;;;;;;;;14.30;80.10;;;;;;5069626;28;20615;-72
2022/03/29 14:35:23;;;;;;;;;;;13.90;74.90;;;;;;5065133;28;19932;-73
2022/03/29 14:37:49;;;;;;;;;;;14.30;75.30;;;;;;5084909;28;20434;-72
2022/03/29 14:40:15;;;;;;;;;;;14.40;73.30;;;;;;5064634;28;19934;-73